createdAt,value
2018-08-12T00:02:09.597Z,92.70
2018-08-12T00:04:39.652Z,92.30
2018-08-12T00:10:36.426Z,92.40
2018-08-12T00:13:22.470Z,93.40
2018-08-12T00:15:52.651Z,93.40
2018-08-12T00:18:22.600Z,92.80
2018-08-12T00:20:52.645Z,92.20
2018-08-12T00:23:34.458Z,92.70
2018-08-12T00:26:05.624Z,92.90
2018-08-12T00:35:20.523Z,95.00
2018-08-12T00:37:50.577Z,95.30
2018-08-12T00:40:22.902Z,95.40
2018-08-12T00:49:11.550Z,93.60
2018-08-12T00:55:07.281Z,96.10
2018-08-12T01:01:11.595Z,96.50
2018-08-12T01:03:41.660Z,96.50
2018-08-12T01:06:11.800Z,96.00
2018-08-12T01:08:59.876Z,95.90
2018-08-12T01:11:30.547Z,95.50
2018-08-12T01:14:00.802Z,94.70
2018-08-12T01:16:31.034Z,95.20
2018-08-12T01:19:01.416Z,95.30
2018-08-12T01:21:31.721Z,96.30
2018-08-12T01:24:02.279Z,96.80
2018-08-12T01:26:57.643Z,97.10
2018-08-12T01:29:27.715Z,97.60
2018-08-12T01:31:57.892Z,97.50
2018-08-12T01:34:28.458Z,97.80
2018-08-12T01:36:59.929Z,98.00
2018-08-12T01:39:30.468Z,97.80
2018-08-12T01:42:16.459Z,98.00
2018-08-12T01:45:06.872Z,98.10
2018-08-12T01:47:37.080Z,98.50
2018-08-12T01:56:27.247Z,96.50
2018-08-12T01:59:16.664Z,96.30
2018-08-12T02:01:49.594Z,96.40
2018-08-12T02:04:21.011Z,95.90
2018-08-12T02:06:51.394Z,95.50
2018-08-12T02:09:22.813Z,95.70
2018-08-12T02:11:56.510Z,96.50
2018-08-12T02:14:30.111Z,96.60
2018-08-12T02:17:18.284Z,97.20
2018-08-12T02:19:48.460Z,97.80
2018-08-12T02:22:18.807Z,98.20
2018-08-12T02:24:52.606Z,98.10
2018-08-12T02:30:34.020Z,98.70
2018-08-12T02:33:04.608Z,98.70
2018-08-12T02:35:34.595Z,98.10
2018-08-12T02:41:40.368Z,96.60
2018-08-12T02:44:10.850Z,97.10
2018-08-12T02:46:40.979Z,96.50
2018-08-12T02:49:10.907Z,96.20
2018-08-12T02:52:00.551Z,97.40
2018-08-12T02:57:48.524Z,97.60
2018-08-12T03:03:29.464Z,98.50
2018-08-12T03:05:59.567Z,98.80
2018-08-12T03:08:29.845Z,99.10
2018-08-12T03:10:59.723Z,99.60
2018-08-12T03:13:29.713Z,99.40
2018-08-12T03:16:00.199Z,99.60
2018-08-12T03:18:31.152Z,99.30
2018-08-12T03:21:09.303Z,98.80
2018-08-12T03:23:39.214Z,98.40
2018-08-12T03:26:09.815Z,97.60
2018-08-12T03:28:39.719Z,97.50
2018-08-12T03:31:09.544Z,97.60
2018-08-12T03:33:47.916Z,98.20
2018-08-12T03:36:19.286Z,99.30
2018-08-12T03:38:50.142Z,99.80
2018-08-12T03:41:20.143Z,99.80
2018-08-12T03:46:50.106Z,98.60
2018-08-12T03:49:36.778Z,98.90
2018-08-12T03:52:07.090Z,98.40
2018-08-12T03:54:37.308Z,97.80
2018-08-12T04:00:27.931Z,97.50
2018-08-12T04:02:58.050Z,97.50
2018-08-12T04:08:32.589Z,98.10
2018-08-12T04:14:03.449Z,99.90
2018-08-12T04:17:24.516Z,99.90
2018-08-12T04:19:54.763Z,99.90
2018-08-12T04:22:53.040Z,99.90
2018-08-12T04:28:14.408Z,99.90
2018-08-12T04:34:03.893Z,99.90
2018-08-12T04:36:33.850Z,99.90
2018-08-12T04:39:03.818Z,99.90
2018-08-12T04:41:33.923Z,99.90
2018-08-12T04:44:13.008Z,99.90
2018-08-12T04:47:08.927Z,99.90
2018-08-12T04:52:49.690Z,99.90
2018-08-12T04:55:19.576Z,99.90
2018-08-12T04:57:49.717Z,99.90
2018-08-12T05:00:19.498Z,99.90
2018-08-12T05:02:50.000Z,99.90
2018-08-12T05:05:20.675Z,99.90
2018-08-12T05:07:51.183Z,99.90
2018-08-12T05:10:23.901Z,99.90
2018-08-12T05:12:53.758Z,99.90
2018-08-12T05:15:23.867Z,99.90
2018-08-12T05:17:54.156Z,99.90
2018-08-12T05:20:24.111Z,99.90
2018-08-12T05:22:58.982Z,99.90
2018-08-12T05:25:36.598Z,99.90
2018-08-12T05:28:06.856Z,99.90
2018-08-12T05:30:36.832Z,99.90
2018-08-12T05:33:08.169Z,99.90
2018-08-12T05:35:37.971Z,99.90
2018-08-12T05:38:08.435Z,99.90
2018-08-12T05:43:33.214Z,99.90
2018-08-12T05:46:04.449Z,99.90
2018-08-12T05:48:35.344Z,99.80
2018-08-12T05:51:06.622Z,99.50
2018-08-12T05:53:36.780Z,99.60
2018-08-12T05:56:07.023Z,99.90
2018-08-12T05:58:36.999Z,99.20
2018-08-12T06:04:20.269Z,98.80
2018-08-12T06:07:06.375Z,98.40
2018-08-12T06:15:48.175Z,98.10
2018-08-12T06:18:21.338Z,97.90
2018-08-12T06:20:51.299Z,97.30
2018-08-12T06:23:21.371Z,97.10
2018-08-12T06:25:51.932Z,96.60
2018-08-12T06:28:22.836Z,95.70
2018-08-12T06:30:52.994Z,94.60
2018-08-12T06:33:23.021Z,94.20
2018-08-12T06:35:53.369Z,93.70
2018-08-12T06:38:23.660Z,93.40
2018-08-12T06:40:54.134Z,93.60
2018-08-12T06:43:24.574Z,92.20
2018-08-12T06:45:54.817Z,91.80
2018-08-12T06:48:25.144Z,91.50
2018-08-12T06:50:55.731Z,90.90
2018-08-12T06:53:26.661Z,90.40
2018-08-12T06:55:56.943Z,90.10
2018-08-12T06:58:27.139Z,89.80
2018-08-12T07:00:57.459Z,89.90
2018-08-12T07:06:27.831Z,88.50
2018-08-12T07:08:58.523Z,87.20
2018-08-12T07:11:29.001Z,86.50
2018-08-12T07:13:59.640Z,86.10
2018-08-12T07:16:30.268Z,87.50
2018-08-12T07:19:00.543Z,86.10
2018-08-12T07:21:30.590Z,84.90
2018-08-12T07:24:04.759Z,85.20
2018-08-12T07:26:58.876Z,85.20
2018-08-12T08:25:58.997Z,84.80
2018-08-12T08:31:38.081Z,76.10
2018-08-12T08:37:19.407Z,75.20
2018-08-12T08:40:44.235Z,75.30
2018-08-12T08:43:14.733Z,73.80
2018-08-12T08:45:44.807Z,72.10
2018-08-12T08:48:16.471Z,73.60
2018-08-12T08:50:46.757Z,73.10
2018-08-12T08:53:29.866Z,72.70
2018-08-12T08:58:43.321Z,70.40
2018-08-12T09:01:13.225Z,70.50
2018-08-12T09:03:43.561Z,70.10
2018-08-12T09:06:13.504Z,71.00
2018-08-12T09:08:47.927Z,69.90
2018-08-12T09:14:32.155Z,70.40
2018-08-12T09:17:04.699Z,69.30
2018-08-12T09:19:34.951Z,68.60
2018-08-12T09:22:06.304Z,68.10
2018-08-12T09:24:37.094Z,68.50
2018-08-12T09:27:09.884Z,67.90
2018-08-12T09:29:40.803Z,67.50
2018-08-12T09:32:11.016Z,67.30
2018-08-12T09:34:41.167Z,67.40
2018-08-12T09:37:11.433Z,68.00
2018-08-12T09:39:41.294Z,67.30
2018-08-12T09:42:16.873Z,68.40
2018-08-12T09:44:47.778Z,66.60
2018-08-12T09:47:17.833Z,66.20
2018-08-12T09:49:47.966Z,66.70
2018-08-12T09:52:18.022Z,65.70
2018-08-12T09:54:48.308Z,65.40
2018-08-12T09:57:18.864Z,64.70
2018-08-12T09:59:48.735Z,64.90
2018-08-12T10:02:18.845Z,65.70
2018-08-12T10:04:48.946Z,64.20
2018-08-12T10:07:22.228Z,63.60
2018-08-12T10:09:52.287Z,63.50
2018-08-12T10:12:22.449Z,63.30
2018-08-12T10:14:52.280Z,63.50
2018-08-12T10:17:23.022Z,63.30
2018-08-12T10:19:53.276Z,63.40
2018-08-12T10:22:23.431Z,63.00
2018-08-12T10:24:53.670Z,62.30
2018-08-12T10:27:23.882Z,62.10
2018-08-12T10:30:07.576Z,61.90
2018-08-12T10:32:38.062Z,61.20
2018-08-12T10:35:10.183Z,61.40
2018-08-12T10:37:44.228Z,60.90
2018-08-12T10:40:36.160Z,61.00
2018-08-12T10:43:07.955Z,60.90
2018-08-12T10:45:38.428Z,61.30
2018-08-12T10:49:02.743Z,60.10
2018-08-12T10:51:32.854Z,60.10
2018-08-12T10:54:07.548Z,60.40
2018-08-12T10:56:47.864Z,60.00
2018-08-12T10:59:44.998Z,60.00
2018-08-12T11:02:15.472Z,59.30
2018-08-12T11:04:48.462Z,59.30
2018-08-12T11:10:41.478Z,57.90
2018-08-12T11:13:35.226Z,58.90
2018-08-12T11:16:06.107Z,58.10
2018-08-12T11:18:36.861Z,58.40
2018-08-12T11:21:07.624Z,58.90
2018-08-12T11:23:44.153Z,58.40
2018-08-12T11:26:15.400Z,58.40
2018-08-12T11:28:46.227Z,57.90
2018-08-12T11:31:16.562Z,58.40
2018-08-12T11:33:46.939Z,58.00
2018-08-12T11:36:17.086Z,57.80
2018-08-12T11:38:47.447Z,58.20
2018-08-12T11:41:17.581Z,57.20
2018-08-12T11:43:48.367Z,58.20
2018-08-12T11:46:18.384Z,57.10
2018-08-12T11:48:48.280Z,56.10
2018-08-12T11:51:18.132Z,56.00
2018-08-12T11:53:49.201Z,56.50
2018-08-12T11:56:19.385Z,57.10
2018-08-12T11:58:50.399Z,56.70
2018-08-12T12:01:20.254Z,55.80
2018-08-12T12:03:51.904Z,55.60
2018-08-12T12:06:22.442Z,55.10
2018-08-12T12:08:54.233Z,54.90
2018-08-12T12:11:42.777Z,54.30
2018-08-12T12:14:14.080Z,53.90
2018-08-12T12:19:54.960Z,53.90
2018-08-12T12:25:42.943Z,53.20
2018-08-12T12:28:25.062Z,52.00
2018-08-12T12:34:09.069Z,52.10
2018-08-12T12:36:44.189Z,52.40
2018-08-12T12:39:14.949Z,51.20
2018-08-12T12:41:48.629Z,51.50
2018-08-12T12:44:18.901Z,51.10
2018-08-12T12:46:48.886Z,50.80
2018-08-12T12:49:19.075Z,50.80
2018-08-12T12:51:49.561Z,50.50
2018-08-12T12:54:19.461Z,50.60
2018-08-12T12:56:49.720Z,50.20
2018-08-12T12:59:19.927Z,50.80
2018-08-12T13:01:50.369Z,50.40
2018-08-12T13:04:20.635Z,49.60
2018-08-12T13:06:51.742Z,50.40
2018-08-12T13:09:22.492Z,50.30
2018-08-12T13:11:52.588Z,50.50
2018-08-12T13:14:22.845Z,49.90
2018-08-12T13:16:53.049Z,49.20
2018-08-12T13:19:23.358Z,50.00
2018-08-12T13:21:53.441Z,49.60
2018-08-12T13:24:23.462Z,49.00
2018-08-12T13:26:53.622Z,49.00
2018-08-12T13:29:24.491Z,49.70
2018-08-12T13:31:54.644Z,48.60
2018-08-12T13:34:24.995Z,48.10
2018-08-12T13:36:55.250Z,47.90
2018-08-12T13:39:25.134Z,47.50
2018-08-12T13:41:55.509Z,47.60
2018-08-12T13:44:25.661Z,47.70
2018-08-12T13:46:55.906Z,46.80
2018-08-12T13:49:28.043Z,47.70
2018-08-12T13:51:58.391Z,46.70
2018-08-12T13:54:30.074Z,46.30
2018-08-12T13:57:00.276Z,46.90
2018-08-12T13:59:31.819Z,46.60
2018-08-12T14:02:02.029Z,45.90
2018-08-12T14:04:32.255Z,46.10
2018-08-12T14:07:02.416Z,46.10
2018-08-12T14:09:32.335Z,46.00
2018-08-12T14:12:02.263Z,45.80
2018-08-12T14:14:32.274Z,45.40
2018-08-12T14:17:02.305Z,44.80
2018-08-12T14:19:32.415Z,45.70
2018-08-12T14:22:02.266Z,45.20
2018-08-12T14:24:32.165Z,44.80
2018-08-12T14:27:02.095Z,45.50
2018-08-12T14:29:32.239Z,45.80
2018-08-12T14:32:02.334Z,46.30
2018-08-12T14:34:32.814Z,44.60
2018-08-12T14:37:02.997Z,45.80
2018-08-12T14:39:54.938Z,45.80
2018-08-12T14:42:27.141Z,44.90
2018-08-12T14:44:57.063Z,45.20
2018-08-12T14:47:28.403Z,45.60
2018-08-12T14:49:59.036Z,45.70
2018-08-12T14:52:30.087Z,45.70
2018-08-12T14:55:01.607Z,45.60
2018-08-12T14:57:32.168Z,45.70
2018-08-12T15:00:03.669Z,45.50
2018-08-12T15:02:34.848Z,45.60
2018-08-12T15:05:05.533Z,45.70
2018-08-12T15:07:37.928Z,45.50
2018-08-12T15:10:10.006Z,45.90
2018-08-12T15:12:43.542Z,45.70
2018-08-12T15:15:17.221Z,44.80
2018-08-12T15:17:52.284Z,44.80
2018-08-12T15:20:47.950Z,44.50
2018-08-12T15:23:18.015Z,44.70
2018-08-12T15:25:48.054Z,45.20
2018-08-12T15:28:18.043Z,45.30
2018-08-12T15:30:48.383Z,45.00
2018-08-12T15:33:19.301Z,44.70
2018-08-12T15:35:49.515Z,44.20
2018-08-12T15:38:19.390Z,44.50
2018-08-12T15:40:49.662Z,44.80
2018-08-12T15:43:19.745Z,43.80
2018-08-12T15:45:49.953Z,44.40
2018-08-12T15:48:19.877Z,44.40
2018-08-12T15:50:49.968Z,44.10
2018-08-12T15:53:19.810Z,43.90
2018-08-12T15:55:49.834Z,44.40
2018-08-12T15:58:19.790Z,43.80
2018-08-12T16:00:50.281Z,44.30
2018-08-12T16:03:20.151Z,44.00
2018-08-12T16:05:53.572Z,44.00
2018-08-12T16:08:23.526Z,44.50
2018-08-12T16:10:53.827Z,43.00
2018-08-12T16:13:24.472Z,43.80
2018-08-12T16:15:54.388Z,43.80
2018-08-12T16:18:24.549Z,44.40
2018-08-12T16:20:54.398Z,44.30
2018-08-12T16:23:24.226Z,44.50
2018-08-12T16:25:54.818Z,44.00
2018-08-12T16:28:25.086Z,44.50
2018-08-12T16:30:55.733Z,45.10
2018-08-12T16:33:27.961Z,44.60
2018-08-12T16:36:16.291Z,44.90
2018-08-12T16:38:46.225Z,44.80
2018-08-12T16:41:18.441Z,44.60
2018-08-12T16:43:49.473Z,44.60
2018-08-12T16:46:34.196Z,44.30
2018-08-12T16:49:04.744Z,44.30
2018-08-12T16:51:35.573Z,44.70
2018-08-12T17:00:26.125Z,44.20
2018-08-12T17:02:56.755Z,43.80
2018-08-12T17:05:26.987Z,44.00
2018-08-12T17:08:04.132Z,44.00
2018-08-12T17:10:34.898Z,44.50
2018-08-12T17:13:06.408Z,44.30
2018-08-12T17:39:47.704Z,44.50
2018-08-12T17:42:18.717Z,45.60
2018-08-12T17:44:48.910Z,45.70
2018-08-12T17:47:18.899Z,46.00
2018-08-12T17:49:48.872Z,46.30
2018-08-12T17:52:19.009Z,45.90
2018-08-12T17:54:49.216Z,46.20
2018-08-12T17:57:23.662Z,47.40
2018-08-12T18:03:04.333Z,46.70
2018-08-12T18:05:52.644Z,46.90
2018-08-12T18:14:16.995Z,48.10
2018-08-12T18:16:52.606Z,49.10
2018-08-12T18:19:24.159Z,48.80
2018-08-12T18:28:05.328Z,49.30
2018-08-12T18:30:36.021Z,49.60
2018-08-12T18:33:08.697Z,50.00
2018-08-12T18:35:39.846Z,51.70
2018-08-12T18:44:31.543Z,52.50
2018-08-12T18:50:18.450Z,52.40
2018-08-12T18:52:55.406Z,53.10
2018-08-12T18:58:35.828Z,53.50
2018-08-12T19:07:48.974Z,58.60
2018-08-12T19:10:20.659Z,59.10
2018-08-12T19:12:52.957Z,59.20
2018-08-12T19:15:23.215Z,58.90
2018-08-12T19:21:03.571Z,59.10
2018-08-12T19:23:34.177Z,59.60
2018-08-12T19:26:11.316Z,59.30
2018-08-12T19:31:53.665Z,61.80
2018-08-12T19:34:24.642Z,61.90
2018-08-12T19:36:54.959Z,62.00
2018-08-12T19:39:25.338Z,60.90
2018-08-12T19:44:46.056Z,60.20
2018-08-12T19:47:16.539Z,63.10
2018-08-12T19:49:47.498Z,63.50
2018-08-12T19:52:17.556Z,63.80
2018-08-12T19:55:06.917Z,63.60
2018-08-12T19:57:37.415Z,63.40
2018-08-12T20:00:11.683Z,62.70
2018-08-12T20:02:42.539Z,62.00
2018-08-12T20:05:13.181Z,62.70
2018-08-12T20:07:43.683Z,63.10
2018-08-12T20:10:16.013Z,64.10
2018-08-12T20:12:46.502Z,65.00
2018-08-12T20:15:16.632Z,66.60
2018-08-12T20:17:46.889Z,67.70
2018-08-12T20:20:23.923Z,68.20
2018-08-12T20:26:04.623Z,66.30
2018-08-12T20:28:47.395Z,66.70
2018-08-12T20:44:04.469Z,70.20
2018-08-12T20:59:30.671Z,72.60
2018-08-12T21:14:42.982Z,74.80
2018-08-12T21:17:24.267Z,74.80
2018-08-12T21:23:16.336Z,72.20
2018-08-12T21:38:27.751Z,73.50
2018-08-12T21:44:07.979Z,75.00
2018-08-12T21:46:39.937Z,75.30
2018-08-12T22:14:01.105Z,76.10
2018-08-12T22:16:43.552Z,75.50
2018-08-12T22:22:24.702Z,77.10
2018-08-12T22:25:23.245Z,78.50
2018-08-12T22:27:53.517Z,78.80
2018-08-12T22:36:38.025Z,80.30
2018-08-12T22:39:10.016Z,81.30
2018-08-12T22:41:40.077Z,80.90
2018-08-12T22:44:10.005Z,79.50
2018-08-12T22:46:41.278Z,79.80
2018-08-12T22:49:11.444Z,78.70
2018-08-12T22:51:41.583Z,78.40
2018-08-12T22:57:44.995Z,80.40
2018-08-12T23:00:19.800Z,79.00
2018-08-12T23:02:50.841Z,78.20
2018-08-12T23:08:31.739Z,81.70
2018-08-12T23:14:14.438Z,84.80
2018-08-12T23:16:58.183Z,85.70
2018-08-12T23:19:28.491Z,85.40
2018-08-12T23:22:16.299Z,84.60
2018-08-12T23:24:46.421Z,83.70
2018-08-12T23:27:23.128Z,82.50
2018-08-12T23:29:53.242Z,84.30
2018-08-12T23:32:23.244Z,86.20
2018-08-12T23:34:53.257Z,86.00
2018-08-12T23:37:23.195Z,83.70
2018-08-12T23:39:53.371Z,82.40
2018-08-12T23:42:23.406Z,82.20
2018-08-12T23:44:53.422Z,83.60
2018-08-12T23:47:33.580Z,86.90
2018-08-12T23:52:58.584Z,87.20
2018-08-12T23:55:28.553Z,84.90
2018-08-12T23:57:58.535Z,84.40
